Time;durP1;ratioP1;P1;durP2;ratioP2;P2;SDS_P1;SDS_P2;PMS_P1;PMS_P2;Temp;Humidity;BMP_temperature;BMP_pressure;BME280_temperature;BME280_humidity;BME280_pressure;Samples;Min_cycle;Max_cycle;Signal;HPM_P1;HPM_P2
2022/06/04 00:00:31;;;;;;;24.63;7.40;;;19.40;99.90;;;;;;5020432;28;20029;-72
2022/06/04 00:02:57;;;;;;;31.55;8.27;;;19.40;99.90;;;;;;5036292;28;20029;-72
2022/06/04 00:05:30;;;;;;;23.08;7.90;;;19.30;99.90;;;;;;5036703;28;20117;-72
2022/06/04 00:07:58;;;;;;;28.27;7.15;;;19.30;99.90;;;;;;5009989;28;20452;-73
2022/06/04 00:16:20;;;;;;;29.88;8.48;;;19.20;99.90;;;;;;4994984;28;20022;-72
2022/06/04 00:18:46;;;;;;;36.40;9.07;;;19.20;99.90;;;;;;5006824;28;20030;-72
2022/06/04 00:21:13;;;;;;;25.65;8.18;;;19.20;99.90;;;;;;5005685;28;20049;-72
2022/06/04 00:23:40;;;;;;;28.85;9.48;;;19.20;99.90;;;;;;5002850;28;20022;-73
2022/06/04 00:26:08;;;;;;;26.30;8.32;;;19.10;99.90;;;;;;5008014;28;20252;-72
2022/06/04 00:28:35;;;;;;;21.58;8.63;;;19.10;99.90;;;;;;5005148;28;20058;-72
2022/06/04 00:31:01;;;;;;;25.38;8.60;;;19.10;99.90;;;;;;5029344;28;20048;-72
2022/06/04 00:33:27;;;;;;;25.67;8.95;;;19.10;99.90;;;;;;5006803;28;20084;-73
2022/06/04 00:35:56;;;;;;;29.17;8.98;;;19.10;99.90;;;;;;5036398;28;20540;-72
2022/06/04 00:38:24;;;;;;;24.45;7.88;;;19.10;99.90;;;;;;5011570;28;20050;-72
2022/06/04 00:41:23;;;;;;;29.50;9.27;;;19.10;99.90;;;;;;5034056;28;20044;-72
2022/06/04 00:44:24;;;;;;;28.15;9.10;;;19.10;99.90;;;;;;5034328;28;20056;-72
2022/06/04 00:47:14;;;;;;;28.63;9.68;;;19.00;99.90;;;;;;5017313;28;20482;-72
2022/06/04 00:49:41;;;;;;;27.20;8.95;;;19.00;99.90;;;;;;5023967;28;20026;-72
2022/06/04 00:52:12;;;;;;;28.45;8.00;;;18.90;99.90;;;;;;5028848;28;20051;-72
2022/06/04 00:54:39;;;;;;;21.20;8.32;;;18.90;99.90;;;;;;5018170;28;20034;-71
2022/06/04 00:57:27;;;;;;;27.77;9.23;;;18.90;99.90;;;;;;5017136;28;20022;-72
2022/06/04 01:00:06;;;;;;;23.88;8.77;;;18.90;99.90;;;;;;5018502;28;20034;-72
2022/06/04 01:02:49;;;;;;;31.27;8.88;;;18.90;99.90;;;;;;5035847;28;20192;-72
2022/06/04 01:05:34;;;;;;;36.80;10.63;;;18.80;99.90;;;;;;5011484;28;20028;-72
2022/06/04 01:08:34;;;;;;;22.85;9.45;;;18.90;99.90;;;;;;5038946;28;20048;-72
2022/06/04 01:11:00;;;;;;;23.98;8.93;;;18.80;99.90;;;;;;5026272;28;20025;-72
2022/06/04 01:13:48;;;;;;;26.85;9.63;;;18.80;99.90;;;;;;5004967;28;20032;-72
2022/06/04 01:16:38;;;;;;;31.95;9.20;;;18.80;99.90;;;;;;5032165;28;20064;-72
2022/06/04 01:19:35;;;;;;;26.00;10.65;;;18.70;99.90;;;;;;5025759;28;20029;-72
2022/06/04 01:22:34;;;;;;;31.50;9.80;;;18.70;99.90;;;;;;5025413;28;20030;-72
2022/06/04 01:25:20;;;;;;;23.92;9.77;;;18.70;99.90;;;;;;5030479;28;20009;-72
2022/06/04 01:28:11;;;;;;;24.52;9.45;;;18.70;99.90;;;;;;5026781;28;20044;-71
2022/06/04 01:30:53;;;;;;;28.40;8.63;;;18.70;99.90;;;;;;5032805;28;20030;-72
2022/06/04 01:33:39;;;;;;;23.60;9.32;;;18.70;99.90;;;;;;5023018;28;20047;-72
2022/06/04 01:36:16;;;;;;;24.65;9.20;;;18.60;99.90;;;;;;5038502;28;20390;-72
2022/06/04 01:38:41;;;;;;;32.22;11.02;;;18.60;99.90;;;;;;5019759;28;20108;-72
2022/06/04 01:41:29;;;;;;;23.63;10.13;;;18.60;99.90;;;;;;5020851;28;20099;-72
2022/06/04 01:44:02;;;;;;;28.33;11.10;;;18.60;99.90;;;;;;5032709;28;20036;-71
2022/06/04 01:46:32;;;;;;;39.28;10.40;;;18.50;99.90;;;;;;5009842;28;20053;-72
2022/06/04 01:49:04;;;;;;;28.35;10.88;;;18.60;99.90;;;;;;5033373;28;20191;-72
2022/06/04 01:51:32;;;;;;;37.38;11.55;;;18.50;99.90;;;;;;5017088;28;20498;-72
2022/06/04 01:54:07;;;;;;;32.58;11.20;;;18.50;99.90;;;;;;5018118;28;20107;-71
2022/06/04 01:56:46;;;;;;;28.58;11.38;;;18.50;99.90;;;;;;5017303;28;20025;-71
2022/06/04 01:59:25;;;;;;;26.27;9.90;;;18.60;99.90;;;;;;5019840;28;20033;-72
2022/06/04 02:01:53;;;;;;;30.33;10.07;;;18.50;99.90;;;;;;5001462;28;20017;-72
2022/06/04 02:04:25;;;;;;;28.02;10.05;;;18.50;99.90;;;;;;5021289;28;20026;-71
2022/06/04 02:07:38;;;;;;;32.38;10.88;;;18.50;99.90;;;;;;5026208;28;20064;-72
2022/06/04 02:10:22;;;;;;;29.67;11.23;;;18.50;99.90;;;;;;5005546;28;20061;-71
2022/06/04 02:12:50;;;;;;;26.65;11.23;;;18.50;99.90;;;;;;5010754;28;20068;-72
2022/06/04 02:15:20;;;;;;;34.67;11.88;;;18.40;99.90;;;;;;5030921;28;20083;-72
2022/06/04 02:17:51;;;;;;;31.63;10.88;;;18.40;99.90;;;;;;5014972;28;20022;-71
2022/06/04 02:20:17;;;;;;;32.85;11.32;;;18.50;99.90;;;;;;5011777;28;20402;-71
2022/06/04 02:22:43;;;;;;;29.98;11.25;;;18.50;99.90;;;;;;5034683;28;20078;-71
2022/06/04 02:25:12;;;;;;;38.83;11.63;;;18.50;99.90;;;;;;5033238;28;20087;-71
2022/06/04 02:27:39;;;;;;;32.40;10.65;;;18.50;99.90;;;;;;5025291;28;20056;-72
2022/06/04 02:30:08;;;;;;;29.48;9.98;;;18.50;99.90;;;;;;5036573;28;20502;-71
2022/06/04 02:32:52;;;;;;;28.38;10.38;;;18.50;99.90;;;;;;5018624;28;20025;-71
2022/06/04 02:35:32;;;;;;;30.10;10.60;;;18.50;99.90;;;;;;5003234;28;20481;-71
2022/06/04 02:38:04;;;;;;;29.33;12.02;;;18.50;99.90;;;;;;5002980;28;20375;-71
2022/06/04 02:40:52;;;;;;;32.38;11.80;;;18.50;99.90;;;;;;5023041;28;20025;-71
2022/06/04 02:43:29;;;;;;;28.58;11.32;;;18.50;99.90;;;;;;5016496;28;20018;-71
2022/06/04 02:46:06;;;;;;;35.67;12.45;;;18.50;99.90;;;;;;5016635;28;20025;-71
2022/06/04 02:48:48;;;;;;;39.92;12.07;;;18.50;99.90;;;;;;4971759;28;1345674;-71
2022/06/04 02:51:21;;;;;;;30.13;11.35;;;18.50;99.90;;;;;;5025175;28;20487;-71
2022/06/04 02:53:48;;;;;;;26.35;11.40;;;18.60;99.90;;;;;;5008812;28;20033;-71
2022/06/04 02:56:26;;;;;;;32.50;12.00;;;18.60;99.90;;;;;;5027594;28;20022;-72
2022/06/04 02:58:56;;;;;;;44.67;14.00;;;18.60;99.90;;;;;;5020355;28;20021;-71
2022/06/04 03:01:23;;;;;;;45.70;15.20;;;18.70;99.90;;;;;;5031531;28;20061;-72
2022/06/04 03:03:49;;;;;;;44.13;14.88;;;18.70;99.90;;;;;;5018786;28;20040;-71
2022/06/04 03:06:31;;;;;;;45.45;14.32;;;18.70;99.90;;;;;;5036300;28;20033;-71
2022/06/04 03:08:57;;;;;;;39.13;14.52;;;18.80;99.90;;;;;;5038349;28;20030;-71
2022/06/04 03:11:23;;;;;;;41.58;14.23;;;18.80;99.90;;;;;;5021960;28;20026;-71
2022/06/04 03:13:49;;;;;;;54.25;15.27;;;18.90;99.90;;;;;;5002930;28;20021;-71
2022/06/04 03:16:16;;;;;;;47.92;15.43;;;18.80;99.90;;;;;;5016470;28;20105;-72
2022/06/04 03:18:43;;;;;;;44.65;14.20;;;18.80;99.90;;;;;;5004296;28;20142;-71
2022/06/04 03:21:10;;;;;;;51.92;17.30;;;18.80;99.90;;;;;;5028214;28;20025;-71
2022/06/04 03:23:36;;;;;;;49.20;16.25;;;18.80;99.90;;;;;;5006762;28;20068;-71
2022/06/04 03:26:03;;;;;;;49.95;16.35;;;18.80;99.90;;;;;;5030813;28;20025;-71
2022/06/04 03:28:29;;;;;;;65.22;15.57;;;18.80;99.90;;;;;;5010716;28;20017;-71
2022/06/04 03:30:56;;;;;;;51.58;17.45;;;18.70;99.90;;;;;;5014985;28;20029;-71
2022/06/04 03:33:21;;;;;;;63.45;16.08;;;18.70;99.90;;;;;;5031915;28;20022;-71
2022/06/04 03:35:47;;;;;;;54.75;16.95;;;18.70;99.90;;;;;;5035545;28;20407;-71
2022/06/04 03:38:13;;;;;;;56.88;17.90;;;18.70;99.90;;;;;;5018553;28;20020;-72
2022/06/04 03:40:39;;;;;;;46.67;17.67;;;18.70;99.90;;;;;;5037487;28;20018;-71
2022/06/04 03:43:05;;;;;;;60.15;17.70;;;18.60;99.90;;;;;;5025476;28;20029;-71
2022/06/04 03:45:31;;;;;;;52.30;17.83;;;18.60;99.90;;;;;;5003202;28;20018;-71
2022/06/04 03:47:58;;;;;;;70.85;17.55;;;18.60;99.90;;;;;;5002469;28;20120;-71
2022/06/04 03:50:29;;;;;;;48.63;16.75;;;18.60;99.90;;;;;;5034597;28;20100;-72
2022/06/04 03:52:55;;;;;;;47.67;17.38;;;18.60;99.90;;;;;;5005770;28;20045;-70
2022/06/04 03:55:21;;;;;;;47.70;17.45;;;18.60;99.90;;;;;;5029823;28;20100;-70
2022/06/04 03:57:48;;;;;;;68.38;17.48;;;18.70;99.90;;;;;;5026087;28;20096;-71
2022/06/04 04:00:31;;;;;;;54.60;16.70;;;18.70;99.90;;;;;;5032295;28;20022;-70
2022/06/04 04:02:57;;;;;;;61.97;18.35;;;18.80;99.90;;;;;;5030142;28;20021;-70
2022/06/04 04:05:30;;;;;;;58.72;17.58;;;18.80;99.90;;;;;;5034222;28;20025;-71
2022/06/04 04:07:56;;;;;;;68.85;19.13;;;18.90;99.90;;;;;;5015126;28;20025;-71
2022/06/04 04:10:24;;;;;;;48.10;16.60;;;18.90;99.90;;;;;;5018212;28;20026;-71
2022/06/04 04:12:51;;;;;;;51.22;16.95;;;19.00;99.90;;;;;;5014881;28;20361;-71
2022/06/04 04:15:17;;;;;;;60.42;18.55;;;19.00;99.90;;;;;;5000639;28;20075;-71
2022/06/04 04:17:44;;;;;;;44.88;15.18;;;19.10;99.90;;;;;;5022357;28;20547;-71
2022/06/04 04:20:19;;;;;;;54.75;17.75;;;19.10;99.90;;;;;;5002654;28;20549;-72
2022/06/04 04:22:46;;;;;;;58.15;16.33;;;19.10;99.90;;;;;;5025099;28;20022;-71
2022/06/04 04:25:14;;;;;;;46.10;15.00;;;19.20;99.90;;;;;;5004709;28;20018;-71
2022/06/04 04:27:39;;;;;;;50.53;16.23;;;19.20;99.90;;;;;;5005747;28;20090;-72
2022/06/04 04:30:08;;;;;;;48.67;16.63;;;19.30;99.90;;;;;;5006226;28;20112;-72
2022/06/04 04:32:34;;;;;;;43.63;15.40;;;19.30;99.90;;;;;;5013560;28;20029;-71
2022/06/04 04:35:01;;;;;;;41.05;13.35;;;19.30;99.90;;;;;;5026829;28;20018;-71
2022/06/04 04:37:27;;;;;;;37.80;13.88;;;19.30;99.90;;;;;;5032778;28;20032;-71
2022/06/04 04:39:54;;;;;;;42.05;14.68;;;19.30;99.90;;;;;;5030457;28;20018;-72
2022/06/04 04:42:20;;;;;;;47.25;13.77;;;19.30;99.90;;;;;;5033147;28;20104;-71
2022/06/04 04:44:45;;;;;;;57.22;15.82;;;19.30;99.90;;;;;;5017721;28;20703;-71
2022/06/04 04:47:11;;;;;;;49.83;15.40;;;19.30;99.90;;;;;;5012121;28;20462;-72
2022/06/04 04:49:37;;;;;;;40.97;14.00;;;19.40;99.90;;;;;;5004505;28;20034;-71
2022/06/04 04:52:03;;;;;;;50.92;15.30;;;19.40;99.90;;;;;;5009190;28;20376;-71
2022/06/04 04:54:30;;;;;;;51.42;15.57;;;19.40;99.90;;;;;;5008927;28;20053;-71
2022/06/04 04:56:56;;;;;;;37.85;14.20;;;19.40;99.90;;;;;;5012255;28;20394;-71
2022/06/04 04:59:22;;;;;;;41.40;15.50;;;19.40;99.90;;;;;;5014296;28;20026;-72
2022/06/04 05:01:47;;;;;;;43.35;15.23;;;19.50;99.90;;;;;;5014595;28;20010;-72
2022/06/04 05:04:13;;;;;;;56.63;14.90;;;19.40;99.90;;;;;;5003300;28;20026;-71
2022/06/04 05:06:39;;;;;;;46.70;15.65;;;19.50;99.90;;;;;;4997809;28;20028;-71
2022/06/04 05:09:05;;;;;;;42.33;15.60;;;19.40;99.90;;;;;;4999328;28;20023;-72
2022/06/04 05:11:32;;;;;;;44.85;15.48;;;19.50;99.90;;;;;;5003492;28;20029;-71
2022/06/04 05:13:59;;;;;;;39.20;14.75;;;19.50;99.90;;;;;;5001438;28;20030;-71
2022/06/04 05:16:30;;;;;;;37.63;14.05;;;19.50;99.90;;;;;;5009801;28;20018;-72
2022/06/04 05:18:55;;;;;;;37.67;16.02;;;19.60;99.90;;;;;;5010631;28;20034;-72
2022/06/04 05:21:24;;;;;;;37.88;15.88;;;19.60;99.90;;;;;;5010970;28;20110;-71
2022/06/04 05:23:53;;;;;;;55.97;16.52;;;19.60;99.90;;;;;;5005276;28;20018;-71
2022/06/04 05:26:20;;;;;;;43.80;16.15;;;19.70;99.90;;;;;;5013026;28;20029;-72
2022/06/04 05:28:46;;;;;;;46.78;15.88;;;19.70;99.90;;;;;;5009032;28;20100;-71
2022/06/04 05:31:12;;;;;;;47.55;17.13;;;19.70;99.90;;;;;;5014261;28;20030;-72
2022/06/04 05:33:39;;;;;;;44.63;16.10;;;19.80;99.90;;;;;;5013283;28;20026;-72
2022/06/04 05:36:05;;;;;;;56.25;17.58;;;19.80;99.90;;;;;;5014179;28;20101;-71
2022/06/04 05:38:34;;;;;;;53.38;15.43;;;19.80;99.90;;;;;;5013409;28;20064;-71
2022/06/04 05:41:03;;;;;;;46.45;16.98;;;19.90;99.90;;;;;;5014914;28;20030;-71
2022/06/04 05:43:29;;;;;;;57.22;17.95;;;19.90;99.90;;;;;;5020144;28;20097;-71
2022/06/04 05:46:03;;;;;;;46.53;16.67;;;19.90;99.90;;;;;;5014904;28;20041;-71
2022/06/04 05:48:29;;;;;;;44.45;16.25;;;19.90;99.90;;;;;;5011854;28;20403;-72
2022/06/04 05:50:55;;;;;;;44.75;16.98;;;19.90;99.90;;;;;;5013054;28;20929;-71
2022/06/04 05:53:22;;;;;;;48.03;16.42;;;19.90;99.90;;;;;;5008448;28;20022;-71
2022/06/04 05:55:49;;;;;;;45.15;17.05;;;19.90;99.90;;;;;;5006336;28;20026;-71
2022/06/04 05:58:15;;;;;;;52.25;17.85;;;19.90;99.90;;;;;;5016191;28;20029;-72
2022/06/04 06:00:41;;;;;;;39.45;16.23;;;19.90;99.90;;;;;;5008790;28;20038;-72
2022/06/04 06:03:07;;;;;;;37.33;16.58;;;19.90;99.90;;;;;;5011639;28;20022;-72
2022/06/04 06:05:33;;;;;;;33.90;15.63;;;20.00;99.90;;;;;;5014124;28;20036;-71
2022/06/04 06:07:59;;;;;;;34.50;16.23;;;20.00;99.90;;;;;;5013443;28;20105;-71
2022/06/04 06:10:26;;;;;;;37.85;15.00;;;20.10;99.90;;;;;;5016126;28;20399;-71
2022/06/04 06:12:53;;;;;;;39.13;16.58;;;20.20;99.90;;;;;;5017040;28;20544;-71
2022/06/04 06:15:19;;;;;;;24.77;12.23;;;20.20;99.90;;;;;;5019399;28;20033;-71
2022/06/04 06:17:46;;;;;;;23.38;10.10;;;20.20;99.90;;;;;;5006110;28;20057;-71
2022/06/04 06:20:12;;;;;;;31.02;11.57;;;20.20;99.90;;;;;;5018198;28;20021;-71
2022/06/04 06:22:38;;;;;;;24.08;11.38;;;20.30;99.90;;;;;;5015781;28;20041;-72
2022/06/04 06:25:05;;;;;;;27.60;11.80;;;20.30;99.90;;;;;;5007389;28;20026;-71
2022/06/04 06:27:33;;;;;;;36.58;11.13;;;20.30;99.90;;;;;;5012283;28;20032;-72
2022/06/04 06:29:59;;;;;;;27.83;10.13;;;20.30;99.90;;;;;;4999927;28;20034;-71
2022/06/04 06:32:26;;;;;;;22.73;9.82;;;20.20;99.90;;;;;;5002139;28;20033;-72
2022/06/04 06:34:52;;;;;;;26.73;11.98;;;20.30;99.90;;;;;;5010454;28;20533;-71
2022/06/04 06:37:18;;;;;;;21.58;10.73;;;20.20;99.90;;;;;;5009533;28;20026;-71
2022/06/04 06:39:44;;;;;;;32.97;10.75;;;20.30;99.90;;;;;;5003854;28;20085;-71
2022/06/04 06:42:10;;;;;;;25.58;9.45;;;20.30;99.90;;;;;;5010834;28;20018;-70
2022/06/04 06:44:35;;;;;;;29.35;11.60;;;20.30;99.90;;;;;;5007296;28;20383;-71
2022/06/04 06:47:01;;;;;;;40.50;12.23;;;20.30;99.90;;;;;;5014004;28;20095;-71
2022/06/04 06:49:29;;;;;;;32.50;11.82;;;20.30;99.90;;;;;;5032074;28;20040;-71
2022/06/04 06:52:00;;;;;;;34.08;10.35;;;20.30;99.90;;;;;;5035920;28;20528;-72
2022/06/04 06:54:31;;;;;;;24.50;10.00;;;20.30;99.90;;;;;;5018256;28;20044;-72
2022/06/04 06:56:57;;;;;;;22.02;10.57;;;20.40;99.90;;;;;;5007664;28;20025;-71
2022/06/04 06:59:25;;;;;;;22.00;11.32;;;20.40;99.90;;;;;;5020429;28;20029;-72
2022/06/04 07:01:52;;;;;;;20.58;10.05;;;20.40;99.90;;;;;;5019894;28;20006;-72
2022/06/04 07:04:21;;;;;;;23.58;10.75;;;20.50;99.90;;;;;;5021136;28;20021;-71
2022/06/04 07:06:50;;;;;;;26.13;10.43;;;20.50;99.90;;;;;;5005519;28;20026;-72
2022/06/04 07:09:17;;;;;;;21.45;9.70;;;20.60;99.90;;;;;;5005713;28;20030;-71
2022/06/04 07:11:44;;;;;;;23.33;10.23;;;20.70;99.90;;;;;;5008572;28;20052;-72
2022/06/04 07:14:11;;;;;;;20.77;9.70;;;20.60;99.90;;;;;;5025716;28;20490;-71
2022/06/04 07:16:37;;;;;;;26.95;10.35;;;20.90;99.90;;;;;;5029585;28;20033;-71
2022/06/04 07:19:04;;;;;;;26.85;10.80;;;21.00;99.90;;;;;;5028124;28;20100;-72
2022/06/04 07:21:30;;;;;;;17.23;8.70;;;21.20;99.90;;;;;;5015426;28;20112;-71
2022/06/04 07:23:57;;;;;;;23.17;9.73;;;21.20;99.90;;;;;;5029989;28;20022;-72
2022/06/04 07:26:23;;;;;;;17.38;8.65;;;21.30;99.90;;;;;;5019431;28;20029;-72
2022/06/04 07:28:49;;;;;;;15.45;8.90;;;21.30;99.90;;;;;;5017907;28;20397;-72
2022/06/04 07:31:15;;;;;;;15.27;8.43;;;21.40;99.90;;;;;;5020041;28;20029;-72
2022/06/04 07:33:43;;;;;;;21.23;8.48;;;21.70;99.90;;;;;;5006322;28;20040;-72
2022/06/04 07:36:18;;;;;;;22.48;8.05;;;21.90;99.90;;;;;;5002220;28;20033;-72
2022/06/04 07:38:44;;;;;;;24.17;8.45;;;22.00;99.90;;;;;;5023589;28;20028;-73
2022/06/04 07:41:18;;;;;;;15.07;8.27;;;22.00;99.90;;;;;;5021866;28;20014;-71
2022/06/04 07:43:44;;;;;;;19.85;8.13;;;21.90;99.90;;;;;;5009183;28;20116;-72
2022/06/04 07:46:10;;;;;;;16.98;7.93;;;22.00;99.90;;;;;;5023448;28;20069;-72
2022/06/04 07:48:35;;;;;;;17.08;7.78;;;22.10;99.90;;;;;;5007196;28;20058;-72
2022/06/04 07:51:04;;;;;;;23.17;7.78;;;22.10;99.90;;;;;;5006566;28;20026;-72
2022/06/04 07:53:30;;;;;;;17.80;7.82;;;22.00;99.90;;;;;;5010194;28;20065;-72
2022/06/04 07:55:56;;;;;;;19.33;7.63;;;21.90;99.90;;;;;;5011256;28;20074;-72
2022/06/04 07:58:22;;;;;;;15.95;8.25;;;22.00;99.90;;;;;;5012952;28;20454;-72
2022/06/04 08:00:58;;;;;;;23.42;8.57;;;22.10;99.90;;;;;;5014729;28;20030;-73
2022/06/04 08:03:24;;;;;;;19.58;8.05;;;22.00;99.90;;;;;;5014655;28;20400;-73
2022/06/04 08:05:51;;;;;;;24.48;9.57;;;22.10;99.90;;;;;;5014573;28;20022;-73
2022/06/04 08:08:17;;;;;;;20.73;8.48;;;22.00;99.90;;;;;;5016194;28;20489;-73
2022/06/04 08:10:46;;;;;;;26.67;8.75;;;22.00;99.90;;;;;;5014974;28;20029;-73
2022/06/04 08:13:31;;;;;;;25.90;7.90;;;22.10;99.90;;;;;;5000775;28;20030;-73
2022/06/04 08:15:59;;;;;;;21.00;8.80;;;22.10;99.90;;;;;;5008822;28;20022;-72
2022/06/04 08:18:25;;;;;;;18.10;7.85;;;22.20;99.90;;;;;;5013198;28;20026;-72
2022/06/04 08:20:53;;;;;;;28.40;8.43;;;22.20;99.90;;;;;;5013307;28;20029;-72
2022/06/04 08:23:20;;;;;;;16.48;8.07;;;22.30;99.90;;;;;;5016980;28;20184;-72
2022/06/04 08:25:51;;;;;;;19.58;8.07;;;22.30;99.90;;;;;;5000569;28;20109;-73
2022/06/04 08:28:18;;;;;;;24.38;9.23;;;22.30;99.90;;;;;;4999234;28;20034;-73
2022/06/04 08:30:45;;;;;;;23.42;8.02;;;22.40;99.90;;;;;;5000259;28;20028;-73
2022/06/04 08:33:12;;;;;;;22.58;8.95;;;22.40;99.90;;;;;;5000901;28;20023;-72
2022/06/04 08:35:38;;;;;;;17.88;8.50;;;22.60;99.90;;;;;;5005493;28;20022;-73
2022/06/04 08:38:04;;;;;;;20.23;8.65;;;22.60;99.90;;;;;;5002554;28;20113;-73
2022/06/04 08:40:45;;;;;;;20.63;8.77;;;22.60;99.90;;;;;;5013695;28;20022;-72
2022/06/04 08:43:22;;;;;;;22.15;8.55;;;22.60;99.90;;;;;;5005858;28;20018;-72
2022/06/04 08:45:48;;;;;;;14.40;7.50;;;22.50;99.90;;;;;;5010907;28;20057;-73
2022/06/04 08:48:19;;;;;;;23.10;8.43;;;22.50;99.90;;;;;;5008940;28;20050;-73
2022/06/04 08:50:47;;;;;;;20.35;8.00;;;22.40;99.90;;;;;;5013491;28;20025;-72
2022/06/04 08:53:24;;;;;;;22.95;9.25;;;22.50;99.90;;;;;;5014048;28;20029;-73
2022/06/04 08:59:01;;;;;;;20.40;7.80;;;22.60;99.90;;;;;;4998451;28;20149;-73
2022/06/04 09:01:54;;;;;;;18.38;8.73;;;22.70;99.90;;;;;;5000184;28;20029;-72
2022/06/04 09:04:40;;;;;;;23.35;7.75;;;22.60;99.90;;;;;;5000994;28;20506;-73
2022/06/04 09:07:25;;;;;;;24.92;8.48;;;22.60;99.90;;;;;;5000022;28;20018;-72
2022/06/04 09:10:20;;;;;;;22.50;8.73;;;22.80;99.90;;;;;;5005910;28;20036;-73
2022/06/04 09:12:55;;;;;;;25.38;7.97;;;22.90;99.90;;;;;;5005689;28;20022;-73
2022/06/04 09:15:37;;;;;;;15.20;7.50;;;23.00;99.90;;;;;;5013248;28;20022;-73
2022/06/04 09:18:17;;;;;;;21.08;8.52;;;23.10;99.90;;;;;;5008266;28;20498;-73
2022/06/04 09:20:47;;;;;;;15.15;7.40;;;23.20;99.90;;;;;;5013867;28;20022;-73
2022/06/04 09:23:35;;;;;;;22.38;7.70;;;23.40;99.90;;;;;;5017085;28;20077;-73
2022/06/04 09:26:07;;;;;;;17.35;6.95;;;23.10;99.90;;;;;;5018974;28;20022;-73
2022/06/04 09:29:05;;;;;;;21.17;8.07;;;23.20;99.90;;;;;;5020211;28;20033;-73
2022/06/04 09:31:41;;;;;;;17.80;7.97;;;23.40;99.90;;;;;;5000065;28;20026;-73
2022/06/04 09:34:25;;;;;;;19.70;7.60;;;23.40;99.90;;;;;;5002611;28;20073;-73
2022/06/04 09:36:51;;;;;;;20.67;7.47;;;23.30;99.90;;;;;;5002892;28;20451;-74
2022/06/04 09:39:24;;;;;;;16.48;7.88;;;23.40;99.90;;;;;;5005829;28;20015;-74
2022/06/04 09:42:00;;;;;;;19.85;8.50;;;23.40;99.90;;;;;;5007363;28;20453;-74
2022/06/04 09:44:28;;;;;;;21.33;8.25;;;23.20;99.90;;;;;;5007370;28;20026;-73
2022/06/04 09:47:04;;;;;;;31.98;8.68;;;23.40;99.90;;;;;;5011320;28;20026;-74
2022/06/04 09:49:44;;;;;;;13.77;7.53;;;23.50;99.90;;;;;;5011215;28;20029;-74
2022/06/04 09:52:38;;;;;;;23.25;8.40;;;23.60;99.90;;;;;;5027316;28;20029;-74
2022/06/04 09:55:14;;;;;;;24.70;8.32;;;23.70;99.90;;;;;;5033346;28;20014;-73
2022/06/04 09:57:40;;;;;;;20.45;7.68;;;23.80;99.90;;;;;;5016774;28;20029;-73
2022/06/04 10:00:28;;;;;;;16.20;7.35;;;24.00;99.90;;;;;;5036690;28;20393;-73
2022/06/04 10:02:55;;;;;;;22.88;7.95;;;24.20;99.90;;;;;;5031147;28;20105;-73
2022/06/04 10:05:23;;;;;;;19.58;8.40;;;24.50;99.90;;;;;;5038703;28;20029;-74
2022/06/04 10:07:49;;;;;;;25.67;8.07;;;24.80;99.90;;;;;;5021668;28;20040;-73
2022/06/04 10:10:30;;;;;;;21.45;8.40;;;25.20;99.90;;;;;;5015396;28;20029;-73
2022/06/04 10:15:46;;;;;;;20.33;7.72;;;25.90;99.90;;;;;;5034818;28;20076;-73
2022/06/04 10:18:29;;;;;;;26.35;8.30;;;26.00;99.90;;;;;;5036822;28;20030;-73
2022/06/04 10:20:59;;;;;;;29.63;8.35;;;25.80;99.90;;;;;;5018922;28;20018;-73
2022/06/04 10:23:27;;;;;;;17.70;7.70;;;25.60;99.90;;;;;;5039101;28;20021;-73
2022/06/04 10:26:30;;;;;;;34.65;8.77;;;25.70;99.90;;;;;;5022648;28;20025;-73
2022/06/04 10:28:59;;;;;;;24.55;9.15;;;25.40;99.90;;;;;;5023432;28;20041;-73
2022/06/04 10:31:53;;;;;;;25.55;8.85;;;25.50;99.90;;;;;;5030164;28;20021;-73
2022/06/04 10:34:45;;;;;;;18.30;7.32;;;25.70;99.90;;;;;;4984407;28;20095;-73
2022/06/04 10:37:22;;;;;;;19.65;6.82;;;25.90;99.90;;;;;;5007232;28;20037;-73
2022/06/04 10:40:39;;;;;;;23.83;7.10;;;25.90;99.90;;;;;;5014329;28;20124;-73
2022/06/04 10:43:13;;;;;;;25.02;7.55;;;26.50;99.90;;;;;;4938571;29;20464;-74
2022/06/04 10:45:50;;;;;;;17.48;7.65;;;27.00;99.90;;;;;;4935778;29;20071;-73
2022/06/04 10:48:31;;;;;;;22.88;7.40;;;27.20;99.90;;;;;;4985868;28;20046;-73
2022/06/04 10:51:26;;;;;;;30.30;8.63;;;27.20;99.90;;;;;;5023151;28;20026;-73
2022/06/04 10:53:55;;;;;;;24.38;7.97;;;26.80;99.90;;;;;;5006353;28;20036;-73
2022/06/04 10:56:49;;;;;;;16.60;7.07;;;26.90;99.90;;;;;;5026233;28;20448;-73
2022/06/04 10:59:22;;;;;;;22.83;7.35;;;26.90;99.90;;;;;;5015274;28;20034;-73
2022/06/04 11:02:34;;;;;;;25.27;7.18;;;26.90;99.90;;;;;;5033379;28;20030;-74
2022/06/04 11:05:33;;;;;;;16.98;6.78;;;27.00;99.90;;;;;;5018848;28;20432;-73
2022/06/04 11:08:05;;;;;;;19.73;6.88;;;27.30;99.90;;;;;;5026817;28;20046;-73
2022/06/04 11:10:35;;;;;;;19.98;6.68;;;27.20;99.90;;;;;;5037055;28;20095;-73
2022/06/04 11:13:11;;;;;;;20.52;7.55;;;27.00;99.90;;;;;;5032306;28;20049;-73
2022/06/04 11:16:04;;;;;;;16.08;6.40;;;27.30;99.90;;;;;;5008524;28;20048;-74
2022/06/04 11:18:48;;;;;;;17.48;6.30;;;27.80;99.90;;;;;;5020737;28;20048;-73
2022/06/04 11:21:22;;;;;;;19.98;7.32;;;28.00;99.90;;;;;;5022069;28;20022;-73
2022/06/04 11:24:02;;;;;;;18.95;5.72;;;28.20;99.90;;;;;;5006421;28;20033;-73
2022/06/04 11:26:55;;;;;;;16.27;6.88;;;28.60;99.90;;;;;;5026002;28;20021;-74
2022/06/04 11:29:20;;;;;;;26.70;7.10;;;28.90;99.90;;;;;;5024359;28;20041;-72
2022/06/04 11:32:02;;;;;;;17.88;6.82;;;28.70;99.90;;;;;;5025413;28;20029;-71
2022/06/04 11:34:33;;;;;;;21.63;6.70;;;28.50;99.90;;;;;;5032720;28;20021;-72
2022/06/04 11:37:21;;;;;;;14.88;6.47;;;28.40;99.90;;;;;;5012997;28;20433;-71
2022/06/04 11:40:29;;;;;;;19.00;6.90;;;28.60;99.90;;;;;;5017337;28;20040;-71
2022/06/04 11:42:59;;;;;;;17.70;6.05;;;28.60;99.90;;;;;;5009107;28;20124;-72
2022/06/04 11:45:27;;;;;;;;;;;28.60;99.90;;;;;;5036433;28;20013;-72
2022/06/04 11:48:08;;;;;;;21.60;8.38;;;28.40;99.90;;;;;;5026296;28;19925;-72
2022/06/04 11:50:43;;;;;;;21.50;6.47;;;28.20;99.90;;;;;;5019368;28;20062;-72
2022/06/04 11:53:34;;;;;;;23.17;6.70;;;28.10;99.90;;;;;;5003905;28;20029;-72
2022/06/04 11:56:06;;;;;;;25.08;7.65;;;27.70;99.90;;;;;;5003566;28;20057;-71
2022/06/04 11:59:03;;;;;;;20.35;7.05;;;27.40;99.90;;;;;;5025967;28;20025;-71
2022/06/04 12:01:54;;;;;;;21.48;7.20;;;27.10;99.90;;;;;;5008428;28;20439;-72
2022/06/04 12:04:32;;;;;;;25.40;7.65;;;26.90;99.90;;;;;;5006704;28;20394;-72
2022/06/04 12:07:03;;;;;;;32.10;7.72;;;26.80;99.90;;;;;;5030921;28;20056;-72
2022/06/04 12:09:48;;;;;;;22.27;7.75;;;27.00;99.90;;;;;;5010715;28;20036;-72
2022/06/04 12:12:26;;;;;;;23.33;7.50;;;26.90;99.90;;;;;;5031287;28;20112;-72
2022/06/04 12:15:06;;;;;;;17.95;7.82;;;27.00;99.90;;;;;;5016336;28;20033;-72
2022/06/04 12:17:54;;;;;;;17.13;7.40;;;27.00;99.90;;;;;;5015840;28;20026;-73
2022/06/04 12:26:20;;;;;;;26.00;7.00;;;26.60;99.90;;;;;;5019916;28;20029;-73
2022/06/04 12:28:47;;;;;;;16.30;6.55;;;26.70;99.90;;;;;;5003212;28;20475;-73
2022/06/04 12:31:12;;;;;;;22.70;8.07;;;26.60;99.90;;;;;;5004878;28;20026;-73
2022/06/04 12:33:52;;;;;;;24.77;7.93;;;26.80;99.90;;;;;;5004970;28;20075;-73
2022/06/04 12:36:34;;;;;;;21.13;7.95;;;27.00;99.90;;;;;;5024935;28;20022;-73
2022/06/04 12:39:21;;;;;;;24.90;8.15;;;27.20;99.90;;;;;;5013674;28;20021;-73
2022/06/04 12:41:54;;;;;;;20.60;7.80;;;27.00;99.90;;;;;;5016299;28;20068;-73
2022/06/04 12:44:27;;;;;;;23.73;7.47;;;26.90;99.90;;;;;;5036498;28;20030;-73
2022/06/04 12:46:54;;;;;;;19.10;7.38;;;27.20;99.90;;;;;;5002462;28;20069;-73
2022/06/04 12:49:30;;;;;;;18.65;7.75;;;27.60;99.90;;;;;;5019255;28;20021;-73
2022/06/04 12:51:59;;;;;;;18.35;7.07;;;27.80;99.90;;;;;;5008335;28;20034;-73
2022/06/04 12:54:34;;;;;;;24.25;7.35;;;27.70;99.90;;;;;;5024433;28;20026;-73
2022/06/04 12:57:24;;;;;;;21.63;7.18;;;27.70;99.90;;;;;;5025452;28;20486;-74
2022/06/04 12:59:53;;;;;;;18.17;6.50;;;27.70;99.90;;;;;;5029530;28;20052;-73
2022/06/04 13:02:26;;;;;;;18.35;7.72;;;27.90;99.90;;;;;;5028847;28;20049;-72
2022/06/04 13:05:12;;;;;;;20.00;6.95;;;28.20;99.90;;;;;;5015326;28;20112;-73
2022/06/04 13:07:55;;;;;;;16.48;7.80;;;28.70;99.90;;;;;;5012448;28;20064;-73
2022/06/04 13:10:30;;;;;;;23.08;6.95;;;28.90;99.90;;;;;;5036224;28;20022;-73
2022/06/04 13:13:14;;;;;;;19.20;7.38;;;28.90;99.90;;;;;;5035666;28;20140;-73
2022/06/04 13:16:03;;;;;;;19.90;6.55;;;28.80;99.90;;;;;;5018390;28;20028;-73
2022/06/04 13:18:35;;;;;;;21.92;7.60;;;29.00;99.90;;;;;;5039776;28;20037;-74
2022/06/04 13:21:15;;;;;;;19.80;6.70;;;28.70;99.90;;;;;;5017988;28;20037;-74